LTAC

Ankara/Esenboğa International Airport

Airport
ICAO code
LTAC
IATA Code
ESB
Summary
ICAO Region
EUR
ICAO Territory
Location

Esenboğa,

Serving
Ankara
Elevation
3125 ft
Coordinates
40° 7' 41" N , 32° 59' 42" E
KCC
Metar
LTAC 201620Z 17005KT 9999 -SHRA BKN030 BKN080 12/07 Q1006 NOSIG

Description

International airport serving Ankara.

Climatology

"Continental" Mediterranean climate - a variation fo the Mediterranean Climate with characteristics of a continental climate due to altitude and limited influence of the sea (Köppen climate classification Csa) - cool winters due to altitude, including sporadic snowfalls and minimum temperatures often below freezing. Summer tends to be hot and dry with significant diurnal temperature range.

Runways

Designator Length Width Surface Rops
03L/21R 3750 45 ASP Yes/Yes
03R/21L 3750 60 ASP Yes/Yes

Airport map

Aerial View

SKYbrary Partners:

Safety knowledge contributed by: